Time;durP1;ratioP1;P1;durP2;ratioP2;P2;SDS_P1;SDS_P2;PMS_P1;PMS_P2;Temp;Humidity;BMP_temperature;BMP_pressure;BME280_temperature;BME280_humidity;BME280_pressure;Samples;Min_cycle;Max_cycle;Signal;HPM_P1;HPM_P2
2023/01/04 00:00:02;;;;;;;;;;;;;;;7.19;100.00;101370.72;5087431;28;19949;-59
2023/01/04 00:02:27;;;;;;;;;;;;;;;7.23;100.00;101375.13;5091419;28;19969;-59
2023/01/04 00:04:52;;;;;;;;;;;;;;;7.29;100.00;101372.50;5091302;28;20063;-59
2023/01/04 00:07:17;;;;;;;;;;;;;;;7.30;100.00;101371.63;5091578;28;19933;-59
2023/01/04 00:09:43;;;;;;;;;;;;;;;7.30;100.00;101389.25;5079002;28;20021;-59
2023/01/04 00:12:08;;;;;;;;;;;;;;;7.31;100.00;101386.63;5071211;28;19939;-59
2023/01/04 00:14:33;;;;;;;;;;;;;;;7.28;100.00;101385.75;5079933;28;19993;-59
2023/01/04 00:16:58;;;;;;;;;;;;;;;7.29;100.00;101382.22;5071512;28;20419;-59
2023/01/04 00:19:24;;;;;;;;;;;;;;;7.24;100.00;101382.19;5071168;28;19934;-59
2023/01/04 00:21:49;;;;;;;;;;;;;;;7.23;100.00;101383.06;5073578;28;19954;-59
2023/01/04 00:24:14;;;;;;;;;;;;;;;7.28;100.00;101383.09;5073006;28;20399;-58
2023/01/04 00:26:40;;;;;;;;;;;;;;;7.28;100.00;101380.44;5071416;28;19946;-59
2023/01/04 00:29:05;;;;;;;;;;;;;;;7.23;100.00;101372.47;5082637;28;19985;-59
2023/01/04 00:31:31;;;;;;;;;;;;;;;7.20;100.00;101366.31;5079724;28;19948;-59
2023/01/04 00:33:58;;;;;;;;;;;;;;;7.26;100.00;101368.97;5091440;28;19943;-59
2023/01/04 00:36:24;;;;;;;;;;;;;;;7.26;100.00;101372.50;5082358;28;20415;-59
2023/01/04 00:39:05;;;;;;;;;;;;;;;7.33;100.00;101370.75;5070859;28;20121;-59
2023/01/04 00:41:50;;;;;;;;;;;;;;;7.34;100.00;101369.88;5070811;28;19966;-59
2023/01/04 00:44:16;;;;;;;;;;;;;;;7.34;100.00;101368.13;5074158;28;20031;-59
2023/01/04 00:46:42;;;;;;;;;;;;;;;7.33;100.00;101379.56;5091313;28;20418;-59
2023/01/04 00:49:08;;;;;;;;;;;;;;;7.30;100.00;101379.56;5090837;28;19969;-59
2023/01/04 00:51:35;;;;;;;;;;;;;;;7.26;100.00;101383.09;5091053;28;20109;-59
2023/01/04 00:54:00;;;;;;;;;;;;;;;7.25;100.00;101381.31;5082265;28;19953;-59
2023/01/04 00:56:29;;;;;;;;;;;;;;;7.17;100.00;101368.94;5070799;28;19942;-59
2023/01/04 00:58:58;;;;;;;;;;;;;;;7.08;100.00;101375.09;5078401;28;20035;-59
2023/01/04 01:01:23;;;;;;;;;;;;;;;7.03;100.00;101376.84;5088933;28;19961;-59
2023/01/04 01:03:52;;;;;;;;;;;;;;;6.96;100.00;101377.69;5089033;28;19989;-59
2023/01/04 01:06:18;;;;;;;;;;;;;;;6.89;100.00;101381.19;5072105;28;20030;-59
2023/01/04 01:08:43;;;;;;;;;;;;;;;6.89;100.00;101381.19;5071156;28;19933;-59
2023/01/04 01:11:09;;;;;;;;;;;;;;;6.87;100.00;101382.94;5073260;28;19973;-59
2023/01/04 01:13:35;;;;;;;;;;;;;;;6.82;100.00;101389.97;5070944;28;19981;-59
2023/01/04 01:16:02;;;;;;;;;;;;;;;6.80;100.00;101390.84;5072684;28;19998;-59
2023/01/04 01:18:28;;;;;;;;;;;;;;;6.75;100.00;101392.59;5072555;28;19943;-59
2023/01/04 01:20:53;;;;;;;;;;;;;;;6.74;100.00;101394.34;5089662;28;20462;-59
2023/01/04 01:23:18;;;;;;;;;;;;;;;6.76;100.00;101383.78;5090083;28;19933;-59
2023/01/04 01:25:43;;;;;;;;;;;;;;;6.75;100.00;101382.91;5086060;28;19952;-59
2023/01/04 01:28:09;;;;;;;;;;;;;;;6.77;100.00;101385.56;5090114;28;19935;-59
2023/01/04 01:30:37;;;;;;;;;;;;;;;6.76;100.00;101395.25;5087786;28;19953;-59
2023/01/04 01:33:03;;;;;;;;;;;;;;;6.78;100.00;101392.59;5069952;28;20025;-59
2023/01/04 01:35:28;;;;;;;;;;;;;;;6.80;100.00;101401.44;5072886;28;20026;-59
2023/01/04 01:37:53;;;;;;;;;;;;;;;6.79;100.00;101400.53;5085889;28;19944;-59
2023/01/04 01:40:18;;;;;;;;;;;;;;;6.87;100.00;101401.44;5094268;28;20338;-59
2023/01/04 01:42:44;;;;;;;;;;;;;;;6.87;100.00;101406.75;5094619;28;19955;-59
2023/01/04 01:45:23;;;;;;;;;;;;;;;6.88;100.00;101410.28;5090181;28;20332;-59
2023/01/04 01:47:49;;;;;;;;;;;;;;;6.89;100.00;101402.34;5074021;28;19934;-59
2023/01/04 01:50:19;;;;;;;;;;;;;;;6.95;100.00;101399.75;5073935;28;19950;-59
2023/01/04 01:52:45;;;;;;;;;;;;;;;6.95;100.00;101402.41;5076044;28;19973;-60
2023/01/04 01:55:12;;;;;;;;;;;;;;;7.00;100.00;101403.25;5073276;28;20352;-59
2023/01/04 01:57:38;;;;;;;;;;;;;;;7.02;100.00;101404.16;5076982;28;19947;-59
2023/01/04 02:00:38;;;;;;;;;;;;;;;7.09;100.00;101408.59;5094050;28;19935;-59
2023/01/04 02:03:17;;;;;;;;;;;;;;;7.14;100.00;101404.22;5088959;28;19941;-59
2023/01/04 02:05:46;;;;;;;;;;;;;;;7.16;100.00;101397.19;5085429;28;20332;-59
2023/01/04 02:08:12;;;;;;;;;;;;;;;7.23;100.00;101393.66;5075917;28;19947;-59
2023/01/04 02:10:37;;;;;;;;;;;;;;;7.29;100.00;101383.09;5079895;28;19941;-59
2023/01/04 02:13:05;;;;;;;;;;;;;;;7.33;100.00;101382.22;5073808;28;19963;-59
2023/01/04 02:15:34;;;;;;;;;;;;;;;7.36;100.00;101382.25;5073501;28;19991;-59
2023/01/04 02:18:08;;;;;;;;;;;;;;;7.38;100.00;101371.66;5073141;28;20325;-59
2023/01/04 02:20:37;;;;;;;;;;;;;;;7.46;100.00;101370.75;5075764;28;19967;-59
2023/01/04 02:23:11;;;;;;;;;;;;;;;7.43;100.00;101362.81;5076017;28;19954;-59
2023/01/04 02:25:36;;;;;;;;;;;;;;;7.45;100.00;101373.41;5073465;28;19937;-59
2023/01/04 02:28:08;;;;;;;;;;;;;;;7.45;100.00;101371.66;5077699;28;20065;-59
2023/01/04 02:30:48;;;;;;;;;;;;;;;7.44;100.00;101361.97;5089610;28;20471;-59
2023/01/04 02:33:20;;;;;;;;;;;;;;;7.40;100.00;101370.75;5089836;28;20022;-59
2023/01/04 02:35:48;;;;;;;;;;;;;;;7.45;100.00;101361.06;5092897;28;20342;-59
2023/01/04 02:38:20;;;;;;;;;;;;;;;7.52;100.00;101360.19;5077865;28;19948;-59
2023/01/04 02:40:50;;;;;;;;;;;;;;;7.48;100.00;101363.72;5072104;28;20006;-59
2023/01/04 02:46:13;;;;;;;;;;;;;;;7.45;100.00;101362.81;5072656;28;19957;-59
2023/01/04 02:51:26;;;;;;;;;;;;;;;7.50;100.00;101361.97;5072011;28;19979;-59
2023/01/04 02:53:51;;;;;;;;;;;;;;;7.46;100.00;101357.53;5080048;28;20332;-58
2023/01/04 02:56:34;;;;;;;;;;;;;;;7.50;100.00;101354.00;5088605;28;19945;-58
2023/01/04 02:59:05;;;;;;;;;;;;;;;7.53;100.00;101355.75;5092979;28;19989;-58
2023/01/04 03:07:25;;;;;;;;;;;;;;;7.59;100.00;101351.38;5074876;28;20012;-58
2023/01/04 03:09:53;;;;;;;;;;;;;;;7.59;100.00;101355.78;5072743;28;20312;-58
2023/01/04 03:12:32;;;;;;;;;;;;;;;7.69;100.00;101342.53;5074641;28;19942;-58
2023/01/04 03:14:59;;;;;;;;;;;;;;;7.71;100.00;101335.47;5077202;28;19949;-58
2023/01/04 03:17:25;;;;;;;;;;;;;;;7.71;100.00;101324.88;5083446;28;20305;-58
2023/01/04 03:19:55;;;;;;;;;;;;;;;7.68;100.00;101318.72;5072397;28;19945;-58
2023/01/04 03:36:46;;;;;;;;;;;;;;;7.52;100.00;101311.66;5071988;28;20059;-58
2023/01/04 03:50:52;;;;;;;;;;;;;;;7.20;100.00;101287.81;5092343;28;20441;-58
2023/01/04 03:53:18;;;;;;;;;;;;;;;7.18;100.00;101288.69;5070557;28;19953;-58
2023/01/04 03:55:44;;;;;;;;;;;;;;;7.19;100.00;101285.16;5071666;28;20049;-58
2023/01/04 03:58:10;;;;;;;;;;;;;;;7.22;100.00;101285.16;5070159;28;19949;-58
2023/01/04 04:00:35;;;;;;;;;;;;;;;7.27;100.00;101272.81;5071383;28;20546;-58
2023/01/04 04:03:11;;;;;;;;;;;;;;;7.26;100.00;101271.97;5071293;28;19934;-58
2023/01/04 04:08:29;;;;;;;;;;;;;;;7.39;100.00;101259.59;5050790;28;19999;-58
2023/01/04 04:10:56;;;;;;;;;;;;;;;7.41;100.00;101255.19;5050352;28;19942;-58
2023/01/04 04:13:21;;;;;;;;;;;;;;;7.49;100.00;101251.66;5067951;28;19950;-58
2023/01/04 04:15:47;;;;;;;;;;;;;;;7.53;100.00;101241.94;5069539;28;20368;-58
2023/01/04 04:18:12;;;;;;;;;;;;;;;7.59;100.00;101245.47;5086353;28;19941;-57
2023/01/04 04:20:37;;;;;;;;;;;;;;;7.67;100.00;101233.13;5084099;28;19961;-57
2023/01/04 04:23:02;;;;;;;;;;;;;;;7.70;100.00;101221.63;5071127;28;19965;-58
2023/01/04 04:25:28;;;;;;;;;;;;;;;7.73;100.00;101219.84;5072684;28;19978;-59
2023/01/04 04:27:53;;;;;;;;;;;;;;;7.77;100.00;101224.28;5071050;28;19946;-58
2023/01/04 04:30:18;;;;;;;;;;;;;;;7.82;100.00;101222.47;5071097;28;20016;-58
2023/01/04 04:32:43;;;;;;;;;;;;;;;7.82;100.00;101214.50;5070368;28;20436;-58
2023/01/04 04:35:09;;;;;;;;;;;;;;;7.90;100.00;101220.69;5071118;28;19981;-58
2023/01/04 04:37:35;;;;;;;;;;;;;;;7.91;100.00;101225.09;5070866;28;19939;-58
2023/01/04 04:40:01;;;;;;;;;;;;;;;7.96;100.00;101220.69;5070398;28;19943;-58
2023/01/04 04:42:26;;;;;;;;;;;;;;;8.03;100.00;101217.13;5071356;28;19965;-58
2023/01/04 04:44:51;;;;;;;;;;;;;;;8.07;100.00;101217.13;5070085;28;20419;-58
2023/01/04 04:47:17;;;;;;;;;;;;;;;8.14;100.00;101218.88;5071057;28;20032;-58
2023/01/04 04:49:42;;;;;;;;;;;;;;;8.17;100.00;101216.19;5070995;28;19938;-58
2023/01/04 04:52:07;;;;;;;;;;;;;;;8.28;100.00;101217.06;5072205;28;20357;-58
2023/01/04 04:54:33;;;;;;;;;;;;;;;8.33;100.00;101220.56;5082042;28;19933;-58
2023/01/04 04:56:58;;;;;;;;;;;;;;;8.37;100.00;101211.75;5085848;28;19947;-58
2023/01/04 04:59:23;;;;;;;;;;;;;;;8.45;100.00;101215.22;5086829;28;19950;-58
2023/01/04 05:01:48;;;;;;;;;;;;;;;8.49;100.00;101206.34;5091159;28;19951;-58
2023/01/04 05:04:15;;;;;;;;;;;;;;;8.51;100.00;101216.06;5086613;28;19972;-58
2023/01/04 05:06:43;;;;;;;;;;;;;;;8.56;100.00;101205.44;5087875;28;19979;-58
2023/01/04 05:09:09;;;;;;;;;;;;;;;8.54;100.00;101201.91;5091311;28;20358;-58
2023/01/04 05:14:18;;;;;;;;;;;;;;;8.66;100.00;101199.19;5094531;28;20043;-58
2023/01/04 05:16:44;;;;;;;;;;;;;;;8.71;100.00;101205.34;5091630;28;20022;-58
2023/01/04 05:19:09;;;;;;;;;;;;;;;8.76;100.00;101207.09;5074467;28;19937;-58
2023/01/04 05:21:34;;;;;;;;;;;;;;;8.81;100.00;101205.25;5074855;28;20534;-58
2023/01/04 05:23:59;;;;;;;;;;;;;;;8.82;100.00;101211.47;5076768;28;19994;-58
2023/01/04 05:26:25;;;;;;;;;;;;;;;8.81;100.00;101207.91;5074375;28;19987;-58
2023/01/04 05:28:50;;;;;;;;;;;;;;;8.89;100.00;101205.22;5081465;28;19945;-58
2023/01/04 05:31:15;;;;;;;;;;;;;;;8.90;100.00;101191.94;5073918;28;19975;-58
2023/01/04 05:33:40;;;;;;;;;;;;;;;8.93;100.00;101199.00;5074197;28;19949;-58
2023/01/04 05:36:06;;;;;;;;;;;;;;;8.99;100.00;101197.22;5076683;28;20061;-58
2023/01/04 05:38:32;;;;;;;;;;;;;;;9.03;100.00;101203.34;5074320;28;19936;-58
2023/01/04 05:40:57;;;;;;;;;;;;;;;9.02;100.00;101194.53;5076437;28;19960;-58
2023/01/04 05:43:23;;;;;;;;;;;;;;;9.06;100.00;101204.22;5074041;28;20039;-58
2023/01/04 05:45:52;;;;;;;;;;;;;;;9.09;100.00;101195.34;5074122;28;20364;-58
2023/01/04 05:48:18;;;;;;;;;;;;;;;9.03;100.00;101198.94;5076218;28;19958;-58
2023/01/04 05:50:44;;;;;;;;;;;;;;;9.07;100.00;101199.78;5073414;28;20407;-58
2023/01/04 05:53:10;;;;;;;;;;;;;;;9.09;100.00;101200.66;5078777;28;19957;-58
2023/01/04 05:55:35;;;;;;;;;;;;;;;9.12;100.00;101200.63;5094199;28;20020;-58
2023/01/04 05:58:00;;;;;;;;;;;;;;;9.16;99.88;101202.34;5094204;28;19944;-58
2023/01/04 06:00:26;;;;;;;;;;;;;;;9.14;99.75;101194.41;5077280;28;19984;-58
2023/01/04 06:02:51;;;;;;;;;;;;;;;9.19;100.00;101207.66;5075753;28;19938;-58
2023/01/04 06:05:16;;;;;;;;;;;;;;;9.16;100.00;101205.91;5093816;28;20546;-58
2023/01/04 06:07:42;;;;;;;;;;;;;;;9.17;99.89;101213.00;5082021;28;19944;-58
2023/01/04 06:10:08;;;;;;;;;;;;;;;9.17;100.00;101215.66;5089042;28;20017;-58
2023/01/04 06:12:34;;;;;;;;;;;;;;;9.18;100.00;101200.56;5091296;28;20415;-58
2023/01/04 06:14:59;;;;;;;;;;;;;;;9.19;100.00;101207.66;5074357;28;20039;-58
2023/01/04 06:17:24;;;;;;;;;;;;;;;9.21;100.00;101211.16;5073598;28;19969;-58
2023/01/04 06:19:50;;;;;;;;;;;;;;;9.21;100.00;101200.53;5093064;28;19939;-58
2023/01/04 06:22:15;;;;;;;;;;;;;;;9.15;100.00;101190.88;5113619;28;19999;-58
2023/01/04 06:24:40;;;;;;;;;;;;;;;9.11;100.00;101182.94;5106141;28;20052;-57
2023/01/04 06:27:06;;;;;;;;;;;;;;;9.15;100.00;101179.38;5089626;28;20378;-58
2023/01/04 06:29:31;;;;;;;;;;;;;;;9.13;100.00;101186.47;5076253;28;19937;-58
2023/01/04 06:31:56;;;;;;;;;;;;;;;9.14;100.00;101183.78;5075727;28;19948;-58
2023/01/04 06:34:22;;;;;;;;;;;;;;;9.19;100.00;101181.97;5065308;28;19948;-58
2023/01/04 06:36:47;;;;;;;;;;;;;;;9.22;100.00;101176.63;5075178;28;19945;-58
2023/01/04 06:39:12;;;;;;;;;;;;;;;9.21;100.00;101184.63;5093167;28;19940;-58
2023/01/04 06:41:37;;;;;;;;;;;;;;;9.30;100.00;101185.44;5093351;28;19967;-58
2023/01/04 06:44:03;;;;;;;;;;;;;;;9.29;100.00;101194.28;5088952;28;19946;-58
2023/01/04 06:46:28;;;;;;;;;;;;;;;9.32;100.00;101194.25;5091904;28;19968;-58
2023/01/04 06:48:54;;;;;;;;;;;;;;;9.30;100.00;101195.19;5088654;28;19938;-58
2023/01/04 06:51:19;;;;;;;;;;;;;;;9.33;99.14;101192.50;5072874;28;19970;-58
2023/01/04 06:53:45;;;;;;;;;;;;;;;9.40;99.85;101202.16;5075556;28;19977;-58
2023/01/04 06:56:10;;;;;;;;;;;;;;;9.42;98.94;101197.72;5074888;28;19942;-58
2023/01/04 06:58:36;;;;;;;;;;;;;;;9.39;98.79;101194.22;5082253;28;19938;-58
2023/01/04 07:01:01;;;;;;;;;;;;;;;9.43;98.93;101186.19;5086570;28;19957;-58
2023/01/04 07:03:26;;;;;;;;;;;;;;;9.45;99.14;101189.72;5078201;28;19938;-58
2023/01/04 07:05:52;;;;;;;;;;;;;;;9.46;99.29;101191.47;5092560;28;19961;-58
2023/01/04 07:08:18;;;;;;;;;;;;;;;9.44;99.95;101193.25;5076709;28;19958;-58
2023/01/04 07:10:43;;;;;;;;;;;;;;;9.44;99.99;101187.94;5072597;28;19996;-58
2023/01/04 07:13:09;;;;;;;;;;;;;;;9.42;99.61;101203.03;5074765;28;20066;-58
2023/01/04 07:15:34;;;;;;;;;;;;;;;9.48;99.30;101195.00;5080156;28;19984;-58
2023/01/04 07:17:59;;;;;;;;;;;;;;;9.51;99.10;101183.47;5091820;28;20036;-58
2023/01/04 07:20:25;;;;;;;;;;;;;;;9.51;100.00;101189.66;5074459;28;19944;-58
2023/01/04 07:22:50;;;;;;;;;;;;;;;9.52;100.00;101196.75;5071642;28;20041;-58
2023/01/04 07:25:16;;;;;;;;;;;;;;;9.52;100.00;101175.50;5077768;28;20381;-58
2023/01/04 07:27:41;;;;;;;;;;;;;;;9.47;100.00;101187.06;5091798;28;19985;-58
2023/01/04 07:30:07;;;;;;;;;;;;;;;9.48;100.00;101184.38;5091217;28;19939;-59
2023/01/04 07:32:32;;;;;;;;;;;;;;;9.45;100.00;101179.09;5074289;28;20038;-58
2023/01/04 07:34:57;;;;;;;;;;;;;;;9.45;100.00;101178.22;5071664;28;19937;-58
2023/01/04 07:37:22;;;;;;;;;;;;;;;9.41;100.00;101177.34;5074199;28;19954;-57
2023/01/04 07:39:48;;;;;;;;;;;;;;;9.42;100.00;101173.84;5071521;28;20325;-57
2023/01/04 07:42:13;;;;;;;;;;;;;;;9.47;100.00;101169.34;5071824;28;20419;-58
2023/01/04 07:44:39;;;;;;;;;;;;;;;9.47;100.00;101169.34;5089797;28;19939;-58
2023/01/04 07:47:04;;;;;;;;;;;;;;;9.55;100.00;101164.84;5092227;28;19930;-58
2023/01/04 07:49:29;;;;;;;;;;;;;;;9.51;99.05;101163.09;5082559;28;20407;-58
2023/01/04 07:51:54;;;;;;;;;;;;;;;9.56;99.07;101161.28;5071140;28;19965;-58
2023/01/04 07:54:20;;;;;;;;;;;;;;;9.56;99.17;101155.06;5071607;28;20359;-57
2023/01/04 07:56:46;;;;;;;;;;;;;;;9.49;98.16;101159.56;5071572;28;19941;-58
2023/01/04 07:59:12;;;;;;;;;;;;;;;9.53;97.91;101150.69;5083415;28;19938;-58
2023/01/04 08:01:38;;;;;;;;;;;;;;;9.60;97.50;101149.75;5091685;28;20327;-58
2023/01/04 08:04:07;;;;;;;;;;;;;;;9.59;96.37;101137.34;5089739;28;19959;-58
2023/01/04 08:06:33;;;;;;;;;;;;;;;9.66;96.76;101139.03;5089037;28;20389;-58
2023/01/04 08:08:58;;;;;;;;;;;;;;;9.67;95.86;101143.44;5072748;28;19939;-58
2023/01/04 08:11:24;;;;;;;;;;;;;;;9.76;95.43;101126.53;5071135;28;20295;-58
2023/01/04 08:13:49;;;;;;;;;;;;;;;9.79;94.56;101131.78;5081565;28;20023;-58
2023/01/04 08:16:20;;;;;;;;;;;;;;;9.85;94.17;101135.25;5091090;28;19935;-58
2023/01/04 08:18:45;;;;;;;;;;;;;;;9.83;93.52;101129.13;5092479;28;19974;-57
2023/01/04 08:21:10;;;;;;;;;;;;;;;9.89;93.10;101107.78;5071341;28;19959;-58
2023/01/04 08:23:36;;;;;;;;;;;;;;;9.92;92.01;101113.03;5075815;28;19928;-58
2023/01/04 08:26:05;;;;;;;;;;;;;;;9.97;92.78;101111.19;5079602;28;19989;-58
2023/01/04 08:28:30;;;;;;;;;;;;;;;9.97;91.71;101119.19;5090167;28;20399;-58
2023/01/04 08:30:56;;;;;;;;;;;;;;;10.03;92.74;101116.44;5086331;28;19932;-58
2023/01/04 08:33:21;;;;;;;;;;;;;;;10.06;91.35;101121.72;5071093;28;19942;-58
2023/01/04 08:35:46;;;;;;;;;;;;;;;10.07;91.63;101112.84;5071232;28;19992;-58
2023/01/04 08:38:12;;;;;;;;;;;;;;;10.07;91.86;101120.81;5078612;28;20019;-58
2023/01/04 08:40:37;;;;;;;;;;;;;;;10.10;91.34;101128.78;5091433;28;20283;-58
2023/01/04 08:43:02;;;;;;;;;;;;;;;10.12;91.87;101132.31;5089641;28;19940;-58
2023/01/04 08:45:28;;;;;;;;;;;;;;;10.14;90.43;101127.88;5093616;28;19943;-58
2023/01/04 08:47:53;;;;;;;;;;;;;;;10.16;91.11;101123.41;5094463;28;19938;-59
2023/01/04 08:50:19;;;;;;;;;;;;;;;10.19;90.22;101118.03;5078535;28;19931;-58
2023/01/04 08:52:44;;;;;;;;;;;;;;;10.22;89.05;101119.75;5077323;28;20016;-58
2023/01/04 08:55:10;;;;;;;;;;;;;;;10.26;88.65;101130.34;5090657;28;19969;-58
2023/01/04 08:57:35;;;;;;;;;;;;;;;10.25;87.02;101128.59;5075071;28;19929;-58
2023/01/04 09:00:00;;;;;;;;;;;;;;;10.35;88.05;101130.22;5094553;28;19982;-58
2023/01/04 09:02:26;;;;;;;;;;;;;;;10.34;87.09;101117.84;5074639;28;19959;-58
2023/01/04 09:04:58;;;;;;;;;;;;;;;10.40;86.68;101112.41;5094095;28;19959;-58
2023/01/04 09:07:23;;;;;;;;;;;;;;;10.41;86.28;101110.66;5094479;28;19965;-58
2023/01/04 09:09:48;;;;;;;;;;;;;;;10.47;85.67;101122.09;5091987;28;20062;-58
2023/01/04 09:12:14;;;;;;;;;;;;;;;10.45;86.17;101121.22;5074412;28;19945;-58
2023/01/04 09:14:39;;;;;;;;;;;;;;;10.45;85.76;101107.03;5074790;28;19930;-58
2023/01/04 09:17:04;;;;;;;;;;;;;;;10.49;84.69;101119.41;5076851;28;19939;-58
2023/01/04 09:19:29;;;;;;;;;;;;;;;10.47;84.57;101098.13;5056757;28;20378;-58
2023/01/04 09:21:55;;;;;;;;;;;;;;;10.52;84.17;101100.72;5080053;28;19971;-58
2023/01/04 09:24:20;;;;;;;;;;;;;;;10.54;85.34;101097.13;5093946;28;19984;-58
2023/01/04 09:26:46;;;;;;;;;;;;;;;10.56;83.66;101103.31;5076548;28;20410;-59
2023/01/04 09:29:11;;;;;;;;;;;;;;;10.56;83.43;101108.63;5088884;28;20698;-59
2023/01/04 09:31:36;;;;;;;;;;;;;;;10.57;83.97;101097.09;5094615;28;20025;-58
2023/01/04 09:34:02;;;;;;;;;;;;;;;10.59;83.94;101107.72;5092487;28;20335;-58
2023/01/04 09:36:27;;;;;;;;;;;;;;;10.57;83.11;101110.41;5074642;28;20032;-58
2023/01/04 09:38:53;;;;;;;;;;;;;;;10.63;83.37;101107.63;5074272;28;19940;-58
2023/01/04 09:41:22;;;;;;;;;;;;;;;10.66;82.37;101105.84;5085674;28;20016;-58
2023/01/04 09:43:48;;;;;;;;;;;;;;;10.70;83.14;101104.88;5082496;28;20033;-58
2023/01/04 09:46:33;;;;;;;;;;;;;;;10.69;83.23;101103.13;5073981;28;20382;-58
2023/01/04 09:49:20;;;;;;;;;;;;;;;10.69;83.43;101095.13;5077224;28;20400;-58
2023/01/04 09:51:50;;;;;;;;;;;;;;;10.72;83.51;101105.72;5093929;28;19968;-57
2023/01/04 09:54:19;;;;;;;;;;;;;;;10.78;83.22;101102.97;5094313;28;19938;-58
2023/01/04 09:56:57;;;;;;;;;;;;;;;10.74;83.16;101096.81;5093940;28;20305;-57
2023/01/04 09:59:26;;;;;;;;;;;;;;;10.76;81.18;101094.16;5090349;28;20261;-58
2023/01/04 10:01:54;;;;;;;;;;;;;;;10.84;81.88;101094.91;5093857;28;20444;-58
2023/01/04 10:04:26;;;;;;;;;;;;;;;10.97;81.13;101085.81;5085288;28;20311;-58
2023/01/04 10:06:51;;;;;;;;;;;;;;;11.07;82.17;101090.06;5074079;28;19938;-58
2023/01/04 10:09:17;;;;;;;;;;;;;;;11.05;80.44;101091.88;5079286;28;20002;-57
2023/01/04 10:12:01;;;;;;;;;;;;;;;11.02;80.23;101086.59;5093924;28;19971;-58
2023/01/04 10:14:35;;;;;;;;;;;;;;;11.10;80.06;101071.38;5093728;28;20310;-58
2023/01/04 10:17:20;;;;;;;;;;;;;;;11.14;80.40;101073.06;5093513;28;19935;-58
2023/01/04 10:19:45;;;;;;;;;;;;;;;11.26;79.94;101065.72;5078904;28;19939;-57
2023/01/04 10:22:15;;;;;;;;;;;;;;;11.23;79.90;101075.56;5073285;28;19956;-58
2023/01/04 10:24:47;;;;;;;;;;;;;;;11.12;79.73;101080.22;5083648;28;20023;-58
2023/01/04 10:27:30;;;;;;;;;;;;;;;11.12;80.48;101056.25;5099836;28;19926;-58
2023/01/04 10:30:14;;;;;;;;;;;;;;;11.21;79.64;101059.63;5089048;28;19966;-57
2023/01/04 10:32:43;;;;;;;;;;;;;;;11.26;80.00;101064.84;5091850;28;19984;-57
2023/01/04 10:35:17;;;;;;;;;;;;;;;11.33;80.10;101055.84;5091997;28;19935;-58
2023/01/04 10:37:43;;;;;;;;;;;;;;;11.31;79.67;101055.88;5092799;28;19982;-57
2023/01/04 10:40:13;;;;;;;;;;;;;;;11.30;80.24;101046.09;5093352;28;19980;-57
2023/01/04 10:42:43;;;;;;;;;;;;;;;11.29;79.86;101043.47;5082236;28;19956;-58
2023/01/04 10:45:26;;;;;;;;;;;;;;;11.32;79.93;101043.41;5073287;28;20357;-57
2023/01/04 10:48:12;;;;;;;;;;;;;;;11.28;79.99;101036.41;5076031;28;20041;-58
2023/01/04 10:50:40;;;;;;;;;;;;;;;11.34;79.86;101044.28;5092995;28;20011;-58
2023/01/04 10:53:06;;;;;;;;;;;;;;;11.37;78.86;101041.53;5092663;28;19973;-58
2023/01/04 10:55:54;;;;;;;;;;;;;;;11.41;79.71;101037.91;5092951;28;19934;-58
2023/01/04 10:58:28;;;;;;;;;;;;;;;11.40;79.45;101031.72;5074071;28;19945;-58
2023/01/04 11:00:59;;;;;;;;;;;;;;;11.46;79.80;101030.72;5092828;28;20018;-58
2023/01/04 11:03:30;;;;;;;;;;;;;;;11.49;79.77;101031.53;5089445;28;19945;-58
2023/01/04 11:06:01;;;;;;;;;;;;;;;11.55;79.00;101025.19;5092927;28;20004;-57
2023/01/04 11:08:32;;;;;;;;;;;;;;;11.57;79.19;101028.69;5089807;28;20472;-57
2023/01/04 11:11:01;;;;;;;;;;;;;;;11.49;79.37;101026.22;5072511;28;19938;-57
2023/01/04 11:13:26;;;;;;;;;;;;;;;11.46;80.00;101017.41;5072273;28;20017;-57
2023/01/04 11:15:52;;;;;;;;;;;;;;;11.50;78.65;101016.41;5072574;28;20025;-58
2023/01/04 11:18:17;;;;;;;;;;;;;;;11.61;79.50;101012.63;5076080;28;19953;-58
2023/01/04 11:20:43;;;;;;;;;;;;;;;11.65;78.74;101017.00;5092620;28;19939;-58
2023/01/04 11:23:12;;;;;;;;;;;;;;;11.66;79.52;101007.25;5091592;28;19928;-58
2023/01/04 11:25:41;;;;;;;;;;;;;;;11.70;79.04;101004.47;5092246;28;19935;-58
2023/01/04 11:28:14;;;;;;;;;;;;;;;11.70;78.83;101009.81;5088370;28;19934;-57
2023/01/04 11:30:49;;;;;;;;;;;;;;;11.62;78.65;101019.72;5092622;28;20442;-58
2023/01/04 11:33:18;;;;;;;;;;;;;;;11.66;79.92;101013.44;5084575;28;20376;-58
2023/01/04 11:35:47;;;;;;;;;;;;;;;11.73;78.62;101011.50;5071694;28;20403;-57
2023/01/04 11:38:15;;;;;;;;;;;;;;;11.75;79.61;101007.03;5073189;28;19944;-57
2023/01/04 11:40:41;;;;;;;;;;;;;;;11.71;79.17;101016.88;5071519;28;20409;-57
2023/01/04 11:43:09;;;;;;;;;;;;;;;11.69;78.84;101015.16;5071360;28;19931;-58
2023/01/04 11:45:34;;;;;;;;;;;;;;;11.69;79.75;101017.84;5070944;28;19983;-57
2023/01/04 11:48:00;;;;;;;;;;;;;;;11.67;80.07;101024.97;5073424;28;19943;-58
2023/01/04 11:50:45;;;;;;;;;;;;;;;11.63;80.16;101013.50;5071485;28;20021;-58
2023/01/04 11:53:37;;;;;;;;;;;;;;;11.69;80.13;101025.81;5070741;28;19970;-58
2023/01/04 11:56:12;;;;;;;;;;;;;;;11.72;81.00;101012.44;5067692;28;19979;-58
2023/01/04 11:58:37;;;;;;;;;;;;;;;11.72;81.24;101012.44;5081966;28;19943;-58
2023/01/04 12:01:02;;;;;;;;;;;;;;;11.68;80.91;101005.41;5090218;28;20458;-58
2023/01/04 12:03:38;;;;;;;;;;;;;;;11.75;80.58;101013.25;5084931;28;20112;-58
2023/01/04 12:06:23;;;;;;;;;;;;;;;11.77;80.00;101010.53;5087213;28;19963;-58
2023/01/04 12:08:48;;;;;;;;;;;;;;;11.86;80.03;101005.03;5087987;28;19940;-58
2023/01/04 12:11:18;;;;;;;;;;;;;;;11.85;80.41;101001.47;5072825;28;20036;-58
2023/01/04 12:13:44;;;;;;;;;;;;;;;11.98;80.83;101010.06;5070174;28;19938;-58
2023/01/04 12:16:09;;;;;;;;;;;;;;;11.99;79.70;101001.19;5079539;28;19928;-59
2023/01/04 12:18:36;;;;;;;;;;;;;;;12.02;79.84;100987.78;5088269;28;19993;-58
2023/01/04 12:21:01;;;;;;;;;;;;;;;12.04;80.78;100999.28;5088725;28;20354;-58
2023/01/04 12:23:27;;;;;;;;;;;;;;;12.07;80.14;100991.22;5088522;28;19947;-58
2023/01/04 12:25:53;;;;;;;;;;;;;;;12.10;80.39;100982.25;5103058;28;19938;-58
2023/01/04 12:28:38;;;;;;;;;;;;;;;12.14;79.36;100975.94;5106555;28;19936;-58
2023/01/04 12:31:19;;;;;;;;;;;;;;;12.30;80.01;100980.88;5096402;28;19939;-58
2023/01/04 12:33:45;;;;;;;;;;;;;;;12.45;78.72;100974.28;5069366;28;19945;-59
2023/01/04 12:36:10;;;;;;;;;;;;;;;12.57;77.58;100980.16;5069089;28;19932;-58
2023/01/04 12:38:51;;;;;;;;;;;;;;;12.71;77.31;100975.38;5069461;28;19930;-57
2023/01/04 12:41:20;;;;;;;;;;;;;;;12.66;77.61;100979.06;5071927;28;20350;-58
2023/01/04 12:43:48;;;;;;;;;;;;;;;12.73;77.89;100954.84;5069606;28;20290;-58
2023/01/04 12:49:25;;;;;;;;;;;;;;;12.89;77.42;100961.53;5069721;28;19945;-58
2023/01/04 12:52:08;;;;;;;;;;;;;;;12.80;77.01;100951.09;5082098;28;20011;-58
2023/01/04 12:54:50;;;;;;;;;;;;;;;12.82;77.60;100954.59;5069243;28;19934;-58
2023/01/04 12:57:15;;;;;;;;;;;;;;;12.76;77.12;100946.75;5068871;28;19931;-59
2023/01/04 12:59:55;;;;;;;;;;;;;;;12.61;78.03;100939.16;5073092;28;20000;-59
2023/01/04 13:02:21;;;;;;;;;;;;;;;12.57;79.12;100940.13;5108523;28;19959;-58
2023/01/04 13:04:47;;;;;;;;;;;;;;;12.58;79.56;100925.00;5091386;28;20051;-58
2023/01/04 13:07:25;;;;;;;;;;;;;;;12.54;80.08;100926.88;5082688;28;19939;-58
2023/01/04 13:09:56;;;;;;;;;;;;;;;12.51;79.81;100937.63;5083975;28;20042;-58
2023/01/04 13:12:38;;;;;;;;;;;;;;;12.49;79.42;100927.91;5069435;28;19932;-58
2023/01/04 13:15:14;;;;;;;;;;;;;;;12.47;79.94;100917.28;5088777;28;19979;-58
2023/01/04 13:17:40;;;;;;;;;;;;;;;12.50;79.92;100913.66;5088719;28;20013;-58
2023/01/04 13:20:12;;;;;;;;;;;;;;;12.48;80.15;100911.03;5074339;28;19965;-58
2023/01/04 13:22:38;;;;;;;;;;;;;;;12.46;79.67;100910.19;5068334;28;20066;-58
2023/01/04 13:25:12;;;;;;;;;;;;;;;12.39;80.03;100916.59;5068103;28;20014;-58
2023/01/04 13:27:37;;;;;;;;;;;;;;;12.30;79.49;100906.19;5083157;28;20444;-58